createdAt,value
2016-12-21T00:00:16.552Z,80.74
2016-12-21T00:00:38.297Z,80.80
2016-12-21T00:01:00.033Z,80.70
2016-12-21T00:01:21.767Z,80.64
2016-12-21T00:01:43.509Z,80.66
2016-12-21T00:02:07.977Z,80.61
2016-12-21T00:02:29.715Z,80.62
2016-12-21T00:02:51.458Z,80.67
2016-12-21T00:03:13.193Z,80.88
2016-12-21T00:03:35.206Z,80.89
2016-12-21T00:03:56.942Z,81.05
2016-12-21T00:04:18.686Z,81.32
2016-12-21T00:04:40.438Z,81.34
2016-12-21T00:05:02.170Z,81.17
2016-12-21T00:05:23.932Z,81.40
2016-12-21T00:05:45.666Z,81.62
2016-12-21T00:06:07.414Z,81.34
2016-12-21T00:06:33.934Z,81.19
2016-12-21T00:06:55.695Z,80.92
2016-12-21T00:07:18.428Z,80.79
2016-12-21T00:07:40.188Z,80.65
2016-12-21T00:08:02.004Z,80.61
2016-12-21T00:08:23.744Z,80.64
2016-12-21T00:08:45.481Z,80.33
2016-12-21T00:09:07.216Z,80.09
2016-12-21T00:09:28.993Z,80.15
2016-12-21T00:09:53.445Z,80.21
2016-12-21T00:10:15.184Z,80.21
2016-12-21T00:10:41.696Z,80.18
2016-12-21T00:11:03.442Z,80.08
2016-12-21T00:11:25.204Z,80.01
2016-12-21T00:11:49.690Z,80.05
2016-12-21T00:12:11.434Z,79.99
2016-12-21T00:12:33.176Z,79.98
2016-12-21T00:12:54.918Z,80.10
2016-12-21T00:13:16.673Z,80.49
2016-12-21T00:13:38.430Z,80.96
2016-12-21T00:14:00.160Z,81.12
2016-12-21T00:14:21.908Z,80.98
2016-12-21T00:14:43.657Z,80.72
2016-12-21T00:15:05.396Z,80.19
2016-12-21T00:15:27.124Z,79.93
2016-12-21T00:15:48.853Z,80.02
2016-12-21T00:16:10.587Z,79.98
2016-12-21T00:16:32.347Z,79.95
2016-12-21T00:16:54.077Z,79.87
2016-12-21T00:17:15.827Z,79.90
2016-12-21T00:17:37.558Z,79.96
2016-12-21T00:17:59.289Z,79.98
2016-12-21T00:18:21.064Z,80.00
2016-12-21T00:18:42.809Z,80.06
2016-12-21T00:19:04.548Z,80.02
2016-12-21T00:19:26.297Z,79.90
2016-12-21T00:19:48.028Z,80.02
2016-12-21T00:20:09.779Z,80.20
2016-12-21T00:20:31.538Z,80.19
2016-12-21T00:20:53.294Z,80.09
2016-12-21T00:21:15.025Z,79.97
2016-12-21T00:21:36.798Z,80.00
2016-12-21T00:21:58.538Z,80.14
2016-12-21T00:22:20.266Z,80.01
2016-12-21T00:22:42.029Z,79.98
2016-12-21T00:23:03.750Z,80.15
2016-12-21T00:23:30.256Z,80.61
2016-12-21T00:23:52.014Z,80.60
2016-12-21T00:24:13.762Z,80.47
2016-12-21T00:24:35.537Z,80.80
2016-12-21T00:24:57.282Z,80.52
2016-12-21T00:25:19.024Z,80.21
2016-12-21T00:25:40.763Z,79.90
2016-12-21T00:26:02.511Z,79.69
2016-12-21T00:26:24.246Z,79.91
2016-12-21T00:26:45.991Z,79.85
2016-12-21T00:27:07.739Z,79.79
2016-12-21T00:27:29.484Z,79.83
2016-12-21T00:27:51.215Z,80.02
2016-12-21T00:28:12.956Z,80.08
2016-12-21T00:28:39.467Z,80.07
2016-12-21T00:29:01.214Z,80.08
2016-12-21T00:29:22.959Z,80.13
2016-12-21T00:29:44.698Z,80.30
2016-12-21T00:30:06.446Z,80.36
2016-12-21T00:30:28.220Z,80.67
2016-12-21T00:31:17.470Z,81.22
2016-12-21T00:31:39.212Z,81.08
2016-12-21T00:32:00.949Z,80.94
2016-12-21T00:32:22.728Z,80.66
2016-12-21T00:32:44.471Z,80.60
2016-12-21T00:33:06.214Z,80.29
2016-12-21T00:33:27.964Z,80.21
2016-12-21T00:33:49.713Z,80.31
2016-12-21T00:34:12.447Z,80.20
2016-12-21T00:34:35.196Z,80.53
2016-12-21T00:34:56.935Z,80.89
2016-12-21T00:35:18.675Z,80.78
2016-12-21T00:35:40.413Z,80.99
2016-12-21T00:36:02.150Z,80.89
2016-12-21T00:36:23.892Z,80.85
2016-12-21T00:36:45.633Z,80.65
2016-12-21T00:37:07.367Z,80.07
2016-12-21T00:37:29.131Z,79.82
2016-12-21T00:37:50.874Z,79.66
2016-12-21T00:38:12.628Z,79.70
2016-12-21T00:38:34.370Z,79.97
2016-12-21T00:38:56.098Z,80.23
2016-12-21T00:39:17.844Z,80.08
2016-12-21T00:39:39.576Z,79.90
2016-12-21T00:40:02.368Z,79.95
2016-12-21T00:40:24.106Z,79.79
2016-12-21T00:40:45.848Z,79.75
2016-12-21T00:41:07.584Z,79.86
2016-12-21T00:41:29.320Z,79.86
2016-12-21T00:41:51.053Z,79.88
2016-12-21T00:42:12.817Z,80.04
2016-12-21T00:42:34.525Z,80.15
2016-12-21T00:42:56.262Z,80.30
2016-12-21T00:43:18.018Z,80.95
2016-12-21T00:43:39.786Z,81.06
2016-12-21T00:44:01.539Z,81.19
2016-12-21T00:44:23.276Z,81.32
2016-12-21T00:44:45.018Z,81.38
2016-12-21T00:45:07.763Z,81.38
2016-12-21T00:45:29.500Z,81.23
2016-12-21T00:45:51.242Z,81.18
2016-12-21T00:46:12.983Z,81.10
2016-12-21T00:46:34.714Z,80.99
2016-12-21T00:46:56.446Z,80.75
2016-12-21T00:47:18.190Z,80.62
2016-12-21T00:47:39.937Z,80.47
2016-12-21T00:48:01.682Z,80.49
2016-12-21T00:48:23.428Z,80.54
2016-12-21T00:48:45.168Z,80.73
2016-12-21T00:49:06.948Z,80.83
2016-12-21T00:49:28.701Z,80.77
2016-12-21T00:49:50.454Z,80.67
2016-12-21T00:50:12.192Z,80.94
2016-12-21T00:50:35.061Z,80.96
2016-12-21T00:50:56.798Z,80.90
2016-12-21T00:51:18.539Z,80.79
2016-12-21T00:51:40.273Z,80.78
2016-12-21T00:52:02.009Z,80.38
2016-12-21T00:52:23.744Z,80.32
2016-12-21T00:52:46.469Z,80.31
2016-12-21T00:53:08.204Z,80.23
2016-12-21T00:53:29.958Z,80.21
2016-12-21T00:53:51.755Z,79.88
2016-12-21T00:54:13.490Z,80.11
2016-12-21T00:54:35.231Z,80.29
2016-12-21T00:54:56.969Z,80.58
2016-12-21T00:55:18.725Z,80.64
2016-12-21T00:55:40.466Z,80.44
2016-12-21T00:56:02.198Z,80.26
2016-12-21T00:56:23.937Z,80.07
2016-12-21T00:56:45.674Z,79.98
2016-12-21T00:57:07.450Z,80.19
2016-12-21T00:57:29.181Z,80.43
2016-12-21T00:57:50.926Z,80.60
2016-12-21T00:58:12.658Z,80.60
2016-12-21T00:59:00.981Z,80.54
2016-12-21T00:59:22.700Z,80.33
2016-12-21T00:59:44.452Z,80.26
2016-12-21T01:00:06.189Z,80.45
2016-12-21T01:00:28.933Z,80.23
2016-12-21T01:00:50.698Z,80.21
2016-12-21T01:01:12.520Z,80.33
2016-12-21T01:01:34.254Z,79.92
2016-12-21T01:01:56.000Z,79.94
2016-12-21T01:02:17.743Z,80.25
2016-12-21T01:02:39.484Z,80.52
2016-12-21T01:03:01.221Z,80.65
2016-12-21T01:03:22.968Z,80.66
2016-12-21T01:03:44.709Z,80.79
2016-12-21T01:04:06.479Z,80.95
2016-12-21T01:04:28.215Z,81.17
2016-12-21T01:04:50.177Z,81.31
2016-12-21T01:05:11.920Z,81.33
2016-12-21T01:05:33.674Z,81.12
2016-12-21T01:05:55.413Z,81.35
2016-12-21T01:06:17.145Z,81.03
2016-12-21T01:06:38.881Z,80.89
2016-12-21T01:07:01.622Z,80.87
2016-12-21T01:07:23.373Z,80.51
2016-12-21T01:07:45.121Z,80.56
2016-12-21T01:08:06.856Z,80.36
2016-12-21T01:08:28.602Z,80.24
2016-12-21T01:09:17.835Z,80.48
2016-12-21T01:09:39.571Z,80.64
2016-12-21T01:10:01.299Z,80.97
2016-12-21T01:10:23.048Z,80.94
2016-12-21T01:10:44.784Z,80.85
2016-12-21T01:11:06.529Z,80.95
2016-12-21T01:11:28.264Z,81.28
2016-12-21T01:11:50.011Z,81.09
2016-12-21T01:12:11.767Z,81.20
2016-12-21T01:12:33.510Z,80.94
2016-12-21T01:12:55.252Z,80.82
2016-12-21T01:13:16.983Z,80.64
2016-12-21T01:13:38.909Z,80.61
2016-12-21T01:14:00.649Z,80.77
2016-12-21T01:14:22.444Z,80.75
2016-12-21T01:14:45.178Z,80.63
2016-12-21T01:15:07.919Z,80.54
2016-12-21T01:15:56.154Z,80.59
2016-12-21T01:16:22.677Z,80.69
2016-12-21T01:16:44.425Z,80.93
2016-12-21T01:17:06.161Z,80.97
2016-12-21T01:17:27.891Z,80.94
2016-12-21T01:17:49.641Z,81.12
2016-12-21T01:18:11.380Z,81.39
2016-12-21T01:18:33.121Z,81.50
2016-12-21T01:18:54.843Z,81.56
2016-12-21T01:19:16.593Z,81.49
2016-12-21T01:19:38.327Z,81.47
2016-12-21T01:20:00.067Z,81.47
2016-12-21T01:20:21.911Z,81.26
2016-12-21T01:20:43.652Z,80.97
2016-12-21T01:21:05.390Z,80.95
2016-12-21T01:21:28.154Z,80.86
2016-12-21T01:21:49.907Z,80.86
2016-12-21T01:22:11.647Z,80.40
2016-12-21T01:22:33.387Z,80.34
2016-12-21T01:22:55.127Z,80.35
2016-12-21T01:23:16.857Z,80.35
2016-12-21T01:23:38.594Z,80.47
2016-12-21T01:24:00.323Z,80.55
2016-12-21T01:24:22.077Z,80.72
2016-12-21T01:24:43.811Z,80.71
2016-12-21T01:25:05.590Z,80.87
2016-12-21T01:25:27.335Z,80.92
2016-12-21T01:25:49.065Z,80.97
2016-12-21T01:26:10.799Z,80.98
2016-12-21T01:26:32.555Z,80.94
2016-12-21T01:26:54.301Z,80.80
2016-12-21T01:27:20.813Z,80.93
2016-12-21T01:27:42.551Z,81.11
2016-12-21T01:28:07.250Z,80.97
2016-12-21T01:28:28.987Z,80.96
2016-12-21T01:28:50.725Z,80.93
2016-12-21T01:29:12.476Z,80.67
2016-12-21T01:29:34.210Z,80.62
2016-12-21T01:29:55.948Z,80.56
2016-12-21T01:30:17.686Z,80.38
2016-12-21T01:30:39.434Z,80.45
2016-12-21T01:31:01.180Z,80.12
2016-12-21T01:31:22.914Z,80.04
2016-12-21T01:31:44.665Z,80.15
2016-12-21T01:32:11.192Z,80.11
2016-12-21T01:32:32.940Z,80.09
2016-12-21T01:32:59.442Z,80.16
2016-12-21T01:33:21.183Z,79.95
2016-12-21T01:33:42.921Z,79.95
2016-12-21T01:34:04.653Z,80.05
2016-12-21T01:34:26.391Z,80.14
2016-12-21T01:34:48.138Z,80.11
2016-12-21T01:35:09.886Z,80.09
2016-12-21T01:35:31.620Z,79.99
2016-12-21T01:35:54.357Z,80.10
2016-12-21T01:36:16.101Z,80.08
2016-12-21T01:36:37.836Z,80.27
2016-12-21T01:37:04.346Z,80.50
2016-12-21T01:37:26.100Z,80.42
2016-12-21T01:37:47.846Z,80.41
2016-12-21T01:38:09.600Z,80.64
2016-12-21T01:38:31.334Z,80.83
2016-12-21T01:38:53.084Z,80.83
2016-12-21T01:39:14.830Z,80.89
2016-12-21T01:39:36.575Z,81.10
2016-12-21T01:39:58.335Z,81.15
2016-12-21T01:40:20.065Z,80.99
2016-12-21T01:40:41.907Z,80.96
2016-12-21T01:41:03.652Z,81.00
2016-12-21T01:41:25.408Z,80.72
2016-12-21T01:41:47.147Z,80.64
2016-12-21T01:42:08.871Z,80.62
2016-12-21T01:42:30.656Z,80.67
2016-12-21T01:42:52.411Z,80.51
2016-12-21T01:43:14.156Z,80.52
2016-12-21T01:43:35.901Z,80.72
2016-12-21T01:43:57.632Z,80.80
2016-12-21T01:44:19.368Z,80.79
2016-12-21T01:44:41.099Z,80.89
2016-12-21T01:45:02.930Z,80.88
2016-12-21T01:45:24.675Z,80.86
2016-12-21T01:45:46.404Z,80.90
2016-12-21T01:46:08.143Z,80.77
2016-12-21T01:46:30.879Z,80.59
2016-12-21T01:46:52.626Z,80.68
2016-12-21T01:47:14.368Z,80.74
2016-12-21T01:47:36.095Z,80.68
2016-12-21T01:47:57.856Z,80.65
2016-12-21T01:48:19.610Z,80.88
2016-12-21T01:48:41.342Z,80.91
2016-12-21T01:49:03.082Z,80.88
2016-12-21T01:49:24.838Z,80.88
2016-12-21T01:49:46.635Z,80.86
2016-12-21T01:50:08.378Z,80.99
2016-12-21T01:50:30.127Z,80.93
2016-12-21T01:50:51.867Z,81.20
2016-12-21T01:51:13.609Z,81.26
2016-12-21T01:51:35.345Z,81.23
2016-12-21T01:51:58.116Z,81.30
2016-12-21T01:52:19.828Z,81.50
2016-12-21T01:52:41.575Z,81.74
2016-12-21T01:53:03.323Z,81.72
2016-12-21T01:53:25.080Z,81.58
2016-12-21T01:53:46.817Z,81.51
2016-12-21T01:54:08.606Z,81.49
2016-12-21T01:54:30.372Z,81.74
2016-12-21T01:54:52.113Z,81.51
2016-12-21T01:55:13.877Z,81.16
2016-12-21T01:55:35.625Z,81.16
2016-12-21T01:55:57.372Z,81.23
2016-12-21T01:56:19.110Z,81.17
2016-12-21T01:56:40.837Z,81.42
2016-12-21T01:57:02.575Z,81.52
2016-12-21T01:57:24.305Z,81.60
2016-12-21T01:57:46.065Z,81.56
2016-12-21T01:58:07.820Z,81.77
2016-12-21T01:58:32.403Z,82.00
2016-12-21T01:58:54.131Z,81.99
2016-12-21T01:59:15.877Z,82.12
2016-12-21T01:59:37.641Z,82.36
2016-12-21T01:59:59.373Z,82.34
2016-12-21T02:00:21.137Z,82.32
2016-12-21T02:00:42.867Z,82.35
2016-12-21T02:01:04.615Z,82.27
2016-12-21T02:01:26.356Z,82.11
2016-12-21T02:01:48.097Z,82.04
2016-12-21T02:02:09.831Z,81.91
2016-12-21T02:02:31.562Z,81.88
2016-12-21T02:02:53.299Z,81.72
2016-12-21T02:03:15.025Z,81.48
2016-12-21T02:03:36.769Z,81.33
2016-12-21T02:03:58.518Z,81.28
2016-12-21T02:04:20.248Z,81.06
2016-12-21T02:04:41.998Z,81.01
2016-12-21T02:05:03.730Z,81.17
2016-12-21T02:05:25.475Z,81.64
2016-12-21T02:05:47.223Z,82.02
2016-12-21T02:06:08.959Z,82.16
2016-12-21T02:06:30.690Z,82.17
2016-12-21T02:06:52.432Z,82.25
2016-12-21T02:07:14.167Z,82.32
2016-12-21T02:07:35.903Z,82.12
2016-12-21T02:07:57.647Z,81.82
2016-12-21T02:08:19.379Z,81.85
2016-12-21T02:08:41.109Z,81.80
2016-12-21T02:09:02.839Z,81.74
2016-12-21T02:09:24.576Z,81.58
2016-12-21T02:09:47.310Z,81.33
2016-12-21T02:10:09.068Z,81.16
2016-12-21T02:10:30.795Z,81.54
2016-12-21T02:11:19.050Z,81.90
2016-12-21T02:11:40.853Z,81.76
2016-12-21T02:12:02.580Z,81.61
2016-12-21T02:12:50.808Z,81.90
2016-12-21T02:13:12.541Z,82.08
2016-12-21T02:13:34.296Z,82.25
2016-12-21T02:13:56.168Z,82.33
2016-12-21T02:14:17.988Z,82.46
2016-12-21T02:14:39.728Z,82.31
2016-12-21T02:15:01.485Z,82.20
2016-12-21T02:15:23.232Z,82.40
2016-12-21T02:15:44.970Z,82.50
2016-12-21T02:16:06.690Z,82.48
2016-12-21T02:16:28.439Z,82.42
2016-12-21T02:16:50.175Z,82.32
2016-12-21T02:17:11.906Z,82.20
2016-12-21T02:17:33.656Z,82.10
2016-12-21T02:17:55.395Z,81.99
2016-12-21T02:18:17.131Z,81.95
2016-12-21T02:18:38.884Z,81.99
2016-12-21T02:19:00.630Z,82.10
2016-12-21T02:19:22.366Z,82.25
2016-12-21T02:19:48.894Z,82.31
2016-12-21T02:20:10.649Z,82.38
2016-12-21T02:21:03.666Z,82.09
2016-12-21T02:21:25.415Z,82.08
2016-12-21T02:21:47.146Z,82.18
2016-12-21T02:22:08.875Z,82.33
2016-12-21T02:22:30.630Z,82.55
2016-12-21T02:22:52.413Z,82.53
2016-12-21T02:23:14.139Z,82.46
2016-12-21T02:23:35.883Z,82.59
2016-12-21T02:23:57.649Z,82.75
2016-12-21T02:24:19.391Z,82.58
2016-12-21T02:24:41.144Z,82.39
2016-12-21T02:25:03.884Z,82.14
2016-12-21T02:25:25.620Z,81.95
2016-12-21T02:25:47.378Z,81.97
2016-12-21T02:26:09.110Z,82.02
2016-12-21T02:26:30.848Z,81.87
2016-12-21T02:26:52.597Z,81.82
2016-12-21T02:27:14.351Z,81.84
2016-12-21T02:27:40.860Z,81.90
2016-12-21T02:28:02.586Z,81.95
2016-12-21T02:28:24.327Z,82.25
2016-12-21T02:28:46.063Z,82.48
2016-12-21T02:29:07.798Z,82.48
2016-12-21T02:29:32.355Z,82.66
2016-12-21T02:29:54.144Z,82.84
2016-12-21T02:30:20.636Z,82.80
2016-12-21T02:30:47.139Z,82.98
2016-12-21T02:31:08.882Z,82.78
2016-12-21T02:31:30.611Z,82.68
2016-12-21T02:31:52.355Z,82.61
2016-12-21T02:32:14.104Z,82.37
2016-12-21T02:32:35.844Z,82.16
2016-12-21T02:32:57.603Z,82.10
2016-12-21T02:33:19.335Z,82.31
2016-12-21T02:33:41.075Z,82.54
2016-12-21T02:34:02.813Z,82.64
2016-12-21T02:34:24.556Z,82.64
2016-12-21T02:35:12.789Z,82.90
2016-12-21T02:35:34.535Z,82.80
2016-12-21T02:35:56.275Z,82.83
2016-12-21T02:36:18.004Z,82.80
2016-12-21T02:36:39.743Z,82.88
2016-12-21T02:37:02.499Z,82.92
2016-12-21T02:37:24.234Z,82.68
2016-12-21T02:37:45.973Z,82.52
2016-12-21T02:38:07.712Z,82.51
2016-12-21T02:38:29.462Z,82.56
2016-12-21T02:38:51.191Z,82.66
2016-12-21T02:39:12.934Z,82.71
2016-12-21T02:39:34.667Z,82.79
2016-12-21T02:39:56.422Z,82.76
2016-12-21T02:40:18.151Z,82.73
2016-12-21T02:40:40.012Z,82.67
2016-12-21T02:41:01.745Z,82.45
2016-12-21T02:41:23.494Z,82.39
2016-12-21T02:41:45.249Z,82.19
2016-12-21T02:42:11.759Z,82.20
2016-12-21T02:42:33.504Z,82.17
2016-12-21T02:42:57.933Z,82.30
2016-12-21T02:43:19.674Z,82.28
2016-12-21T02:43:41.412Z,82.32
2016-12-21T02:44:07.916Z,82.07
2016-12-21T02:44:29.659Z,81.73
2016-12-21T02:44:51.407Z,81.75
2016-12-21T02:45:13.153Z,81.82
2016-12-21T02:45:34.887Z,81.93
2016-12-21T02:45:56.623Z,82.03
2016-12-21T02:46:18.358Z,82.18
2016-12-21T02:46:44.868Z,82.34
2016-12-21T02:47:11.381Z,82.57
2016-12-21T02:47:33.144Z,82.59
2016-12-21T02:47:59.641Z,82.79
2016-12-21T02:48:26.175Z,82.92
2016-12-21T02:48:47.913Z,83.06
2016-12-21T02:49:09.647Z,83.08
2016-12-21T02:49:31.389Z,82.95
2016-12-21T02:49:53.153Z,82.84
2016-12-21T02:50:14.879Z,82.79
2016-12-21T02:50:36.613Z,82.83
2016-12-21T02:50:58.344Z,82.82
2016-12-21T02:51:20.082Z,82.57
2016-12-21T02:51:41.817Z,82.31
2016-12-21T02:52:03.553Z,82.26
2016-12-21T02:52:26.306Z,82.29
2016-12-21T02:52:48.047Z,82.22
2016-12-21T02:53:09.795Z,82.08
2016-12-21T02:53:31.532Z,82.11
2016-12-21T02:54:02.800Z,82.24
2016-12-21T02:54:27.525Z,82.34
2016-12-21T02:54:49.277Z,82.37
2016-12-21T02:55:11.012Z,82.43
2016-12-21T02:55:33.740Z,82.44
2016-12-21T02:55:55.483Z,82.34
2016-12-21T02:56:17.240Z,82.27
2016-12-21T02:56:38.973Z,82.44
2016-12-21T02:57:00.704Z,82.67
2016-12-21T02:57:22.435Z,82.65
2016-12-21T02:57:44.172Z,82.55
2016-12-21T02:58:05.908Z,82.35
2016-12-21T02:58:28.640Z,82.17
2016-12-21T02:58:50.417Z,82.25
2016-12-21T02:59:12.160Z,82.56
2016-12-21T02:59:38.677Z,82.93
2016-12-21T03:00:00.416Z,82.89
2016-12-21T03:00:22.203Z,82.72
2016-12-21T03:00:43.945Z,82.71
2016-12-21T03:01:05.698Z,82.60
2016-12-21T03:01:27.436Z,82.47
2016-12-21T03:01:49.174Z,82.39
2016-12-21T03:02:10.920Z,82.29
2016-12-21T03:02:32.667Z,82.19
2016-12-21T03:02:54.403Z,82.04
2016-12-21T03:03:16.156Z,81.93
2016-12-21T03:03:37.890Z,81.84
2016-12-21T03:03:59.653Z,81.89
2016-12-21T03:04:21.395Z,81.95
2016-12-21T03:04:43.135Z,82.03
2016-12-21T03:05:04.883Z,82.07
2016-12-21T03:05:26.630Z,82.10
2016-12-21T03:05:48.364Z,81.96
2016-12-21T03:06:14.877Z,82.27
2016-12-21T03:06:36.622Z,82.43
2016-12-21T03:06:58.358Z,82.59
2016-12-21T03:07:20.090Z,82.53
2016-12-21T03:07:41.843Z,82.31
2016-12-21T03:08:03.574Z,82.23
2016-12-21T03:08:25.322Z,82.09
2016-12-21T03:08:47.049Z,81.93
2016-12-21T03:09:08.788Z,81.81
2016-12-21T03:09:30.537Z,81.70
2016-12-21T03:09:52.284Z,81.43
2016-12-21T03:10:14.052Z,81.39
2016-12-21T03:10:35.796Z,81.54
2016-12-21T03:10:57.548Z,81.85
2016-12-21T03:11:19.293Z,81.80
2016-12-21T03:11:41.039Z,81.75
2016-12-21T03:12:02.772Z,81.84
2016-12-21T03:12:24.512Z,81.98
2016-12-21T03:12:46.241Z,82.05
2016-12-21T03:13:07.989Z,82.14
2016-12-21T03:13:56.240Z,82.55
2016-12-21T03:14:17.988Z,82.52
2016-12-21T03:14:39.725Z,82.30
2016-12-21T03:15:01.466Z,82.10
2016-12-21T03:15:23.204Z,82.09
2016-12-21T03:15:44.959Z,82.08
2016-12-21T03:16:06.699Z,82.15
2016-12-21T03:16:28.458Z,81.93
2016-12-21T03:16:50.208Z,81.80
2016-12-21T03:17:11.944Z,82.10
2016-12-21T03:17:33.677Z,82.08
2016-12-21T03:17:55.427Z,81.94
2016-12-21T03:18:17.165Z,81.98
2016-12-21T03:18:39.905Z,82.16
2016-12-21T03:19:01.642Z,82.28
2016-12-21T03:19:28.187Z,82.40
2016-12-21T03:19:49.926Z,82.27
2016-12-21T03:20:11.667Z,82.02
2016-12-21T03:20:33.423Z,82.17
2016-12-21T03:20:55.169Z,82.31
2016-12-21T03:21:16.912Z,82.37
2016-12-21T03:21:38.674Z,82.52
2016-12-21T03:22:00.431Z,82.42
2016-12-21T03:22:22.177Z,82.51
2016-12-21T03:22:43.912Z,82.53
2016-12-21T03:23:05.653Z,82.52
2016-12-21T03:23:27.389Z,82.44
2016-12-21T03:23:49.131Z,82.44
2016-12-21T03:24:10.966Z,82.33
2016-12-21T03:24:32.703Z,82.41
2016-12-21T03:24:54.447Z,82.43
2016-12-21T03:25:16.196Z,82.58
2016-12-21T03:25:37.931Z,82.52
2016-12-21T03:25:59.680Z,82.45
2016-12-21T03:26:21.450Z,82.42
2016-12-21T03:26:43.188Z,82.55
2016-12-21T03:27:04.920Z,82.69
2016-12-21T03:27:26.654Z,82.39
2016-12-21T03:27:48.395Z,82.40
2016-12-21T03:28:10.129Z,82.52
2016-12-21T03:28:31.862Z,82.29
2016-12-21T03:28:53.597Z,82.00
2016-12-21T03:29:15.331Z,82.05
2016-12-21T03:29:37.133Z,81.96
2016-12-21T03:29:58.888Z,81.57
2016-12-21T03:30:20.644Z,81.51
2016-12-21T03:30:42.401Z,81.31
2016-12-21T03:31:07.092Z,81.58
2016-12-21T03:31:28.828Z,81.27
2016-12-21T03:31:50.594Z,81.33
2016-12-21T03:32:12.328Z,81.46
2016-12-21T03:32:34.067Z,81.77
2016-12-21T03:32:56.804Z,82.22
2016-12-21T03:33:18.545Z,82.43
2016-12-21T03:33:40.290Z,82.53
2016-12-21T03:34:02.018Z,82.61
2016-12-21T03:34:23.748Z,82.56
2016-12-21T03:35:11.983Z,82.59
2016-12-21T03:35:35.990Z,82.89
2016-12-21T03:35:57.743Z,82.84
2016-12-21T03:36:19.476Z,82.65
2016-12-21T03:36:41.210Z,82.63
2016-12-21T03:37:02.963Z,82.62
2016-12-21T03:37:24.690Z,82.63
2016-12-21T03:37:46.436Z,82.69
2016-12-21T03:38:08.217Z,82.55
2016-12-21T03:38:29.986Z,82.62
2016-12-21T03:38:51.746Z,82.71
2016-12-21T03:39:13.491Z,82.62
2016-12-21T03:39:35.234Z,82.88
2016-12-21T03:40:01.750Z,83.16
2016-12-21T03:40:23.483Z,83.08
2016-12-21T03:40:45.229Z,82.87
2016-12-21T03:41:06.966Z,82.65
2016-12-21T03:41:28.750Z,82.47
2016-12-21T03:41:50.504Z,82.76
2016-12-21T03:42:12.253Z,83.09
2016-12-21T03:42:33.997Z,83.28
2016-12-21T03:42:55.743Z,83.28
2016-12-21T03:43:17.484Z,83.24
2016-12-21T03:43:39.246Z,83.13
2016-12-21T03:44:00.978Z,83.09
2016-12-21T03:44:22.717Z,83.18
2016-12-21T03:44:44.447Z,83.21
2016-12-21T03:45:06.209Z,82.97
2016-12-21T03:45:32.708Z,82.80
2016-12-21T03:45:54.447Z,82.75
2016-12-21T03:46:16.187Z,82.54
2016-12-21T03:46:37.925Z,82.57
2016-12-21T03:47:04.429Z,82.64
2016-12-21T03:47:30.936Z,82.52
2016-12-21T03:47:52.689Z,82.68
2016-12-21T03:48:14.419Z,82.66
2016-12-21T03:48:36.169Z,82.43
2016-12-21T03:48:57.921Z,82.83
2016-12-21T03:49:19.656Z,83.55
2016-12-21T03:49:46.151Z,84.25
2016-12-21T03:50:07.894Z,84.58
2016-12-21T03:50:29.631Z,84.54
2016-12-21T03:50:51.369Z,84.07
2016-12-21T03:51:13.111Z,83.88
2016-12-21T03:51:34.870Z,83.99
2016-12-21T03:51:56.621Z,83.92
2016-12-21T03:52:18.360Z,83.84
2016-12-21T03:52:40.126Z,83.68
2016-12-21T03:53:01.868Z,83.34
2016-12-21T03:53:23.611Z,83.07
2016-12-21T03:53:45.339Z,83.06
2016-12-21T03:54:07.126Z,83.05
2016-12-21T03:54:28.872Z,82.90
2016-12-21T03:54:50.625Z,83.20
2016-12-21T03:55:12.357Z,83.07
2016-12-21T03:55:34.104Z,83.00
2016-12-21T03:55:55.938Z,83.26
2016-12-21T03:56:18.681Z,83.57
2016-12-21T03:56:40.416Z,83.75
2016-12-21T03:57:02.156Z,83.60
2016-12-21T03:57:23.905Z,83.39
2016-12-21T03:57:50.412Z,83.70
2016-12-21T03:58:12.167Z,83.61
2016-12-21T03:58:33.903Z,83.38
2016-12-21T03:58:55.628Z,83.33
2016-12-21T03:59:17.366Z,83.13
2016-12-21T03:59:39.104Z,83.01
2016-12-21T04:00:03.484Z,83.14
2016-12-21T04:00:25.226Z,83.67
2016-12-21T04:00:46.966Z,83.88
2016-12-21T04:01:08.711Z,83.81
2016-12-21T04:01:30.447Z,83.89
2016-12-21T04:01:52.189Z,83.80
2016-12-21T04:02:13.944Z,84.00
2016-12-21T04:02:40.457Z,83.67
2016-12-21T04:03:02.193Z,83.79
2016-12-21T04:03:23.949Z,84.14
2016-12-21T04:03:50.452Z,83.55
2016-12-21T04:04:13.190Z,83.57
2016-12-21T04:04:34.926Z,83.76
2016-12-21T04:04:56.656Z,83.79
2016-12-21T04:05:44.922Z,83.94
2016-12-21T04:06:06.649Z,84.24
2016-12-21T04:06:28.419Z,84.14
2016-12-21T04:06:50.137Z,84.01
2016-12-21T04:07:11.874Z,84.15
2016-12-21T04:07:33.608Z,84.16
2016-12-21T04:08:00.127Z,83.81
2016-12-21T04:08:21.862Z,83.61
2016-12-21T04:08:43.602Z,83.92
2016-12-21T04:09:10.125Z,84.02
2016-12-21T04:09:31.889Z,84.11
2016-12-21T04:09:54.077Z,84.05
2016-12-21T04:10:25.347Z,83.76
2016-12-21T04:10:47.092Z,83.90
2016-12-21T04:11:08.832Z,84.18
2016-12-21T04:11:30.575Z,84.66
2016-12-21T04:11:52.309Z,84.58
2016-12-21T04:12:14.057Z,84.61
2016-12-21T04:12:35.789Z,84.60
2016-12-21T04:12:57.522Z,84.56
2016-12-21T04:13:19.311Z,84.39
2016-12-21T04:13:41.071Z,84.28
2016-12-21T04:14:02.805Z,84.36
2016-12-21T04:14:51.051Z,84.49
2016-12-21T04:15:12.792Z,84.13
2016-12-21T04:15:34.648Z,83.97
2016-12-21T04:15:56.393Z,84.51
2016-12-21T04:16:18.149Z,84.36
2016-12-21T04:16:39.886Z,84.51
2016-12-21T04:17:01.635Z,84.37
2016-12-21T04:17:23.371Z,84.42
2016-12-21T04:17:49.882Z,84.67
2016-12-21T04:18:11.613Z,84.79
2016-12-21T04:18:33.353Z,84.79
2016-12-21T04:18:55.082Z,84.74
2016-12-21T04:19:16.834Z,85.14
2016-12-21T04:19:38.573Z,85.27
2016-12-21T04:20:00.305Z,85.56
2016-12-21T04:20:22.045Z,85.72
2016-12-21T04:20:43.783Z,85.62
2016-12-21T04:21:05.513Z,85.59
2016-12-21T04:21:27.266Z,85.56
2016-12-21T04:21:49.001Z,85.47
2016-12-21T04:22:10.746Z,85.43
2016-12-21T04:22:32.493Z,85.47
2016-12-21T04:22:54.229Z,85.43
2016-12-21T04:23:15.962Z,85.02
2016-12-21T04:23:37.707Z,84.90
2016-12-21T04:24:30.719Z,84.90
2016-12-21T04:24:52.469Z,84.89
2016-12-21T04:25:14.232Z,84.88
2016-12-21T04:25:35.965Z,84.94
2016-12-21T04:25:57.700Z,84.97
2016-12-21T04:26:19.439Z,84.91
2016-12-21T04:26:41.167Z,84.97
2016-12-21T04:27:02.916Z,85.01
2016-12-21T04:27:24.667Z,84.97
2016-12-21T04:27:46.409Z,85.08
2016-12-21T04:28:08.138Z,85.02
2016-12-21T04:28:30.949Z,84.89
2016-12-21T04:28:52.683Z,84.89
2016-12-21T04:29:14.418Z,85.08
2016-12-21T04:29:38.783Z,85.24
2016-12-21T04:30:00.526Z,85.43
2016-12-21T04:30:22.272Z,85.18
2016-12-21T04:30:44.024Z,85.11
2016-12-21T04:31:05.753Z,85.27
2016-12-21T04:31:28.482Z,85.33
2016-12-21T04:31:55.989Z,85.39
2016-12-21T04:32:17.753Z,85.49
2016-12-21T04:32:39.494Z,85.54
2016-12-21T04:33:01.265Z,85.67
2016-12-21T04:33:23.008Z,85.79
2016-12-21T04:33:44.741Z,85.79
2016-12-21T04:34:07.472Z,85.76
2016-12-21T04:34:29.218Z,85.65
2016-12-21T04:34:50.973Z,85.58
2016-12-21T04:35:12.720Z,85.50
2016-12-21T04:35:34.454Z,85.50
2016-12-21T04:35:56.189Z,85.63
2016-12-21T04:36:18.932Z,85.59
2016-12-21T04:36:40.665Z,85.63
2016-12-21T04:37:02.434Z,85.75
2016-12-21T04:37:24.180Z,85.63
2016-12-21T04:37:45.924Z,85.53
2016-12-21T04:38:07.672Z,85.61
2016-12-21T04:38:29.434Z,85.60
2016-12-21T04:38:51.180Z,85.52
2016-12-21T04:39:12.926Z,85.54
2016-12-21T04:39:34.679Z,85.61
2016-12-21T04:39:56.429Z,85.49
2016-12-21T04:40:18.176Z,85.43
2016-12-21T04:40:39.911Z,85.46
2016-12-21T04:41:01.649Z,85.52
2016-12-21T04:41:23.391Z,85.64
2016-12-21T04:41:45.123Z,85.81
2016-12-21T04:42:06.869Z,85.83
2016-12-21T04:42:28.606Z,86.36
2016-12-21T04:42:50.352Z,86.59
2016-12-21T04:43:12.106Z,86.35
2016-12-21T04:43:33.848Z,86.10
2016-12-21T04:43:55.587Z,86.13
2016-12-21T04:44:17.334Z,86.13
2016-12-21T04:44:39.069Z,86.00
2016-12-21T04:45:00.823Z,86.05
2016-12-21T04:45:27.326Z,86.18
2016-12-21T04:45:49.071Z,86.09
2016-12-21T04:46:10.816Z,86.13
2016-12-21T04:46:32.561Z,86.20
2016-12-21T04:46:54.292Z,86.07
2016-12-21T04:47:16.029Z,85.89
2016-12-21T04:47:38.797Z,85.79
2016-12-21T04:48:00.576Z,85.57
2016-12-21T04:48:22.354Z,85.52
2016-12-21T04:48:48.840Z,85.62
2016-12-21T04:49:18.047Z,86.02
2016-12-21T04:49:54.080Z,86.28
2016-12-21T04:50:52.920Z,86.37
2016-12-21T04:51:19.417Z,86.49